createdAt,value
2022-11-29T00:01:52.587Z,23.10
2022-11-29T00:06:59.631Z,23.00
2022-11-29T00:12:06.831Z,23.10
2022-11-29T00:17:14.086Z,23.10
2022-11-29T00:22:21.267Z,23.10
2022-11-29T00:27:28.475Z,23.20
2022-11-29T00:32:35.827Z,23.20
2022-11-29T00:37:42.841Z,23.20
2022-11-29T00:42:49.997Z,23.20
2022-11-29T00:47:57.207Z,23.20
2022-11-29T00:53:04.391Z,23.30
2022-11-29T00:58:11.596Z,23.30
2022-11-29T01:03:18.835Z,23.30
2022-11-29T01:08:26.009Z,23.40
2022-11-29T01:13:33.190Z,23.40
2022-11-29T01:18:40.449Z,23.40
2022-11-29T01:23:47.594Z,23.40
2022-11-29T01:28:54.825Z,23.40
2022-11-29T01:34:02.061Z,23.40
2022-11-29T01:39:09.273Z,23.40
2022-11-29T01:44:16.466Z,23.40
2022-11-29T01:49:23.732Z,23.40
2022-11-29T01:54:30.971Z,23.50
2022-11-29T01:59:38.167Z,23.50
2022-11-29T02:04:45.578Z,23.50
2022-11-29T02:09:52.560Z,23.60
2022-11-29T02:14:59.812Z,23.60
2022-11-29T02:20:07.015Z,23.70
2022-11-29T02:25:14.214Z,23.70
2022-11-29T02:30:21.400Z,23.80
2022-11-29T02:35:28.625Z,23.80
2022-11-29T02:40:35.810Z,23.80
2022-11-29T02:45:43.094Z,23.80
2022-11-29T02:50:50.195Z,23.80
2022-11-29T02:55:57.317Z,23.80
2022-11-29T03:01:04.614Z,23.80
2022-11-29T03:06:11.741Z,23.80
2022-11-29T03:11:18.935Z,23.80
2022-11-29T03:16:26.130Z,23.70
2022-11-29T03:21:33.372Z,23.70
2022-11-29T03:26:40.539Z,23.60
2022-11-29T03:31:47.744Z,23.60
2022-11-29T03:36:54.995Z,23.50
2022-11-29T03:42:02.158Z,23.40
2022-11-29T03:47:09.386Z,23.30
2022-11-29T03:52:16.678Z,23.20
2022-11-29T03:57:23.808Z,23.10
2022-11-29T04:02:31.091Z,23.10
2022-11-29T04:07:38.325Z,22.90
2022-11-29T04:12:45.407Z,22.90
2022-11-29T04:17:52.682Z,22.70
2022-11-29T04:22:59.935Z,22.70
2022-11-29T04:28:07.085Z,22.60
2022-11-29T04:33:14.336Z,22.60
2022-11-29T04:38:21.526Z,22.50
2022-11-29T04:43:28.713Z,22.50
2022-11-29T04:48:35.914Z,22.40
2022-11-29T04:53:43.129Z,22.30
2022-11-29T04:58:50.333Z,22.30
2022-11-29T05:03:57.562Z,22.20
2022-11-29T05:09:04.770Z,22.10
2022-11-29T05:14:11.938Z,22.00
2022-11-29T05:19:19.174Z,22.00
2022-11-29T05:24:26.399Z,21.90
2022-11-29T05:29:33.575Z,21.80
2022-11-29T05:34:40.784Z,21.80
2022-11-29T05:39:47.979Z,21.60
2022-11-29T05:44:55.213Z,21.60
2022-11-29T05:50:02.397Z,21.50
2022-11-29T05:55:09.623Z,21.50
2022-11-29T06:00:16.791Z,21.40
2022-11-29T06:05:24.014Z,21.30
2022-11-29T06:10:31.204Z,21.30
2022-11-29T06:15:38.391Z,21.30
2022-11-29T06:20:45.607Z,21.20
2022-11-29T06:25:53.092Z,21.20
2022-11-29T06:31:00.318Z,21.20
2022-11-29T06:36:07.418Z,21.20
2022-11-29T06:41:14.675Z,21.10
2022-11-29T06:46:21.882Z,21.10
2022-11-29T06:51:29.047Z,21.00
2022-11-29T06:56:36.260Z,21.00
2022-11-29T07:01:43.533Z,20.90
2022-11-29T07:06:50.651Z,20.90
2022-11-29T07:11:57.877Z,20.90
2022-11-29T07:17:05.079Z,20.80
2022-11-29T07:22:12.246Z,20.80
2022-11-29T07:27:19.491Z,20.70
2022-11-29T07:32:26.672Z,20.70
2022-11-29T07:37:33.813Z,20.60
2022-11-29T07:42:41.066Z,20.60
2022-11-29T07:47:48.298Z,20.70
2022-11-29T07:52:55.496Z,20.80
2022-11-29T07:58:02.723Z,20.90
2022-11-29T08:03:09.905Z,21.10
2022-11-29T08:08:17.099Z,21.10
2022-11-29T08:13:24.342Z,21.20
2022-11-29T08:18:31.505Z,21.30
2022-11-29T08:23:38.728Z,21.40
2022-11-29T08:28:45.956Z,21.50
2022-11-29T08:33:53.074Z,21.50
2022-11-29T08:39:06.097Z,21.60
2022-11-29T08:44:07.425Z,21.70
2022-11-29T08:49:14.559Z,21.80
2022-11-29T08:54:21.726Z,21.80
2022-11-29T08:59:28.924Z,22.00
2022-11-29T09:04:36.056Z,22.00
2022-11-29T09:09:43.213Z,22.00
2022-11-29T09:14:50.496Z,22.10
2022-11-29T09:19:57.698Z,22.20
2022-11-29T09:25:04.874Z,22.20
2022-11-29T09:30:12.081Z,22.30
2022-11-29T09:35:19.249Z,22.30
2022-11-29T09:40:26.482Z,22.40
2022-11-29T09:45:33.757Z,22.50
2022-11-29T09:50:40.792Z,22.50
2022-11-29T09:55:47.993Z,22.50
2022-11-29T10:00:55.334Z,22.60
2022-11-29T10:06:02.436Z,22.60
2022-11-29T10:11:09.674Z,22.60
2022-11-29T10:16:16.917Z,22.70
2022-11-29T10:21:24.082Z,22.70
2022-11-29T10:26:35.130Z,22.70
2022-11-29T10:31:38.623Z,22.80
2022-11-29T10:36:45.850Z,22.80
2022-11-29T10:41:53.099Z,22.80
2022-11-29T10:47:00.328Z,22.90
2022-11-29T10:52:07.531Z,22.90
2022-11-29T10:57:14.735Z,22.90
2022-11-29T11:02:22.011Z,22.90
2022-11-29T11:07:29.347Z,22.90
2022-11-29T11:12:36.375Z,22.90
2022-11-29T11:17:43.626Z,22.80
2022-11-29T11:22:50.861Z,22.70
2022-11-29T11:27:58.059Z,22.70
2022-11-29T11:33:05.316Z,22.70
2022-11-29T11:38:12.486Z,22.80
2022-11-29T11:43:19.714Z,22.80
2022-11-29T11:48:26.952Z,22.80
2022-11-29T11:53:34.151Z,22.80
2022-11-29T11:58:41.323Z,22.90
2022-11-29T12:03:48.548Z,22.90
2022-11-29T12:08:55.744Z,22.90
2022-11-29T12:14:02.957Z,22.90
2022-11-29T12:19:10.182Z,22.90
2022-11-29T12:24:17.362Z,22.90
2022-11-29T12:29:24.558Z,22.90
2022-11-29T12:34:31.776Z,22.90
2022-11-29T12:39:39.019Z,22.90
2022-11-29T12:44:46.705Z,23.00
2022-11-29T12:49:53.592Z,23.00
2022-11-29T12:55:00.827Z,23.00
2022-11-29T13:00:08.001Z,23.00
2022-11-29T13:05:15.261Z,23.10
2022-11-29T13:10:22.421Z,23.20
2022-11-29T13:15:29.644Z,23.30
2022-11-29T13:20:36.876Z,23.40
2022-11-29T13:25:44.113Z,23.40
2022-11-29T13:30:51.407Z,23.40
2022-11-29T13:35:58.559Z,23.40
2022-11-29T13:41:05.775Z,23.50
2022-11-29T13:46:12.952Z,23.50
2022-11-29T13:51:20.276Z,23.50
2022-11-29T13:56:27.461Z,23.50
2022-11-29T14:01:34.730Z,23.50
2022-11-29T14:06:41.962Z,23.60
2022-11-29T14:11:49.088Z,23.60
2022-11-29T14:16:56.285Z,23.60
2022-11-29T14:22:03.541Z,23.60
2022-11-29T14:27:10.648Z,23.60
2022-11-29T14:32:17.883Z,23.60
2022-11-29T14:37:25.142Z,23.70
2022-11-29T14:42:32.372Z,23.70
2022-11-29T14:47:39.524Z,23.70
2022-11-29T14:52:46.725Z,23.70
2022-11-29T14:57:53.919Z,23.80
2022-11-29T15:03:01.108Z,23.70
2022-11-29T15:08:08.342Z,23.80
2022-11-29T15:13:15.528Z,23.80
2022-11-29T15:18:22.770Z,23.80
2022-11-29T15:23:29.989Z,23.90
2022-11-29T15:28:37.135Z,23.90
2022-11-29T15:33:44.362Z,23.90
2022-11-29T15:38:51.607Z,23.90
2022-11-29T15:43:58.746Z,23.80
2022-11-29T15:49:05.968Z,23.80
2022-11-29T15:54:13.773Z,23.70
2022-11-29T15:59:20.358Z,23.70
2022-11-29T16:04:27.509Z,23.70
2022-11-29T16:09:34.743Z,23.70
2022-11-29T16:14:42.176Z,23.80
2022-11-29T16:19:49.786Z,23.80
2022-11-29T16:24:57.127Z,23.90
2022-11-29T16:30:04.615Z,23.90
2022-11-29T16:35:12.067Z,23.80
2022-11-29T16:40:19.302Z,23.90
2022-11-29T16:45:26.920Z,23.90
2022-11-29T16:50:34.214Z,23.90
2022-11-29T16:55:42.705Z,23.90
2022-11-29T17:00:50.136Z,23.90
2022-11-29T17:05:57.194Z,23.90
2022-11-29T17:11:04.732Z,23.90
2022-11-29T17:16:12.085Z,23.90
2022-11-29T17:21:19.328Z,23.90
2022-11-29T17:26:26.860Z,23.90
2022-11-29T17:31:34.494Z,23.90
2022-11-29T17:36:41.883Z,24.00
2022-11-29T17:41:49.148Z,24.00
2022-11-29T17:46:56.673Z,24.00
2022-11-29T17:52:04.086Z,24.00
2022-11-29T17:57:11.343Z,24.00
2022-11-29T18:02:18.892Z,24.00
2022-11-29T18:07:26.483Z,24.00
2022-11-29T18:12:33.955Z,24.00
2022-11-29T18:17:41.304Z,24.00
2022-11-29T18:22:49.880Z,24.00
2022-11-29T18:27:57.623Z,24.00
2022-11-29T18:33:05.315Z,24.00
2022-11-29T18:38:16.018Z,24.10
2022-11-29T18:43:20.672Z,24.00
2022-11-29T18:48:28.249Z,24.00
2022-11-29T18:53:35.864Z,24.00
2022-11-29T18:58:43.509Z,24.10
2022-11-29T19:03:50.993Z,24.10
2022-11-29T19:08:58.608Z,24.10
2022-11-29T19:14:05.886Z,24.00
2022-11-29T19:19:13.343Z,23.90
2022-11-29T19:24:20.750Z,23.90
2022-11-29T19:29:28.369Z,24.00
2022-11-29T19:34:36.065Z,23.90
2022-11-29T19:39:43.956Z,23.90
2022-11-29T19:50:02.337Z,24.00
2022-11-29T19:55:06.122Z,24.10
2022-11-29T20:00:13.855Z,24.10
2022-11-29T20:05:22.471Z,24.20
2022-11-29T20:10:30.188Z,24.20
2022-11-29T20:15:38.899Z,24.20
2022-11-29T20:20:46.494Z,24.30
2022-11-29T20:25:54.156Z,24.30
2022-11-29T20:31:01.959Z,24.40
2022-11-29T20:36:09.492Z,24.40
2022-11-29T20:41:17.100Z,24.40
2022-11-29T20:46:24.789Z,24.50
2022-11-29T20:51:32.535Z,24.60
2022-11-29T20:56:39.871Z,24.60
2022-11-29T21:01:47.434Z,24.60
2022-11-29T21:06:54.772Z,24.70
2022-11-29T21:12:01.978Z,24.60
2022-11-29T21:17:09.182Z,24.60
2022-11-29T21:22:16.391Z,24.60
2022-11-29T21:27:23.907Z,24.70
2022-11-29T21:32:31.530Z,24.70
2022-11-29T21:37:39.118Z,24.70
2022-11-29T21:42:46.443Z,24.60
2022-11-29T21:47:53.668Z,24.70
2022-11-29T21:53:00.896Z,24.70
2022-11-29T21:58:08.140Z,24.60
2022-11-29T22:03:15.388Z,24.60
2022-11-29T22:08:22.523Z,24.70
2022-11-29T22:13:29.699Z,24.70
2022-11-29T22:18:36.886Z,24.70
2022-11-29T22:23:44.003Z,24.70
2022-11-29T22:28:51.174Z,24.70
2022-11-29T22:33:58.403Z,24.70
2022-11-29T22:39:05.620Z,24.70
2022-11-29T22:44:12.776Z,24.70
2022-11-29T22:49:20.013Z,24.70
2022-11-29T22:54:27.203Z,24.70
2022-11-29T22:59:34.369Z,24.70
2022-11-29T23:04:41.701Z,24.70
2022-11-29T23:09:48.862Z,24.70
2022-11-29T23:14:56.966Z,24.70
2022-11-29T23:20:03.300Z,24.80
2022-11-29T23:25:10.440Z,24.80
2022-11-29T23:30:17.623Z,24.80
2022-11-29T23:35:24.895Z,24.70
2022-11-29T23:40:32.023Z,24.70
2022-11-29T23:45:39.343Z,24.70
2022-11-29T23:50:46.525Z,24.70
2022-11-29T23:55:53.682Z,24.70
